createdAt,value
2022-08-05T00:01:29.166Z,21.24
2022-08-05T00:03:56.730Z,21.23
2022-08-05T00:06:32.416Z,21.14
2022-08-05T00:09:00.894Z,21.16
2022-08-05T00:11:30.679Z,21.15
2022-08-05T00:14:12.108Z,21.12
2022-08-05T00:16:53.385Z,21.06
2022-08-05T00:19:22.660Z,20.99
2022-08-05T00:21:50.553Z,20.90
2022-08-05T00:24:19.167Z,20.90
2022-08-05T00:26:53.183Z,20.86
2022-08-05T00:29:22.349Z,20.86
2022-08-05T00:32:13.276Z,20.83
2022-08-05T00:35:05.809Z,20.76
2022-08-05T00:37:51.253Z,20.65
2022-08-05T00:40:28.264Z,20.62
2022-08-05T00:43:00.922Z,20.58
2022-08-05T00:45:39.441Z,20.48
2022-08-05T00:48:15.643Z,20.51
2022-08-05T00:50:44.051Z,20.46
2022-08-05T00:54:01.431Z,20.41
2022-08-05T00:56:00.242Z,20.39
2022-08-05T00:58:27.720Z,19.93
2022-08-05T01:00:54.991Z,19.92
2022-08-05T01:03:22.871Z,19.60
2022-08-05T01:05:54.526Z,19.59
2022-08-05T01:08:41.364Z,19.36
2022-08-05T01:11:24.289Z,19.47
2022-08-05T01:14:10.930Z,19.58
2022-08-05T01:16:57.362Z,19.54
2022-08-05T01:20:01.941Z,19.68
2022-08-05T01:22:47.051Z,19.65
2022-08-05T01:25:39.663Z,19.66
2022-08-05T01:28:18.465Z,19.76
2022-08-05T01:30:55.335Z,19.69
2022-08-05T01:33:26.483Z,19.46
2022-08-05T01:35:57.378Z,19.55
2022-08-05T01:38:29.139Z,19.59
2022-08-05T01:41:01.308Z,19.54
2022-08-05T01:43:29.981Z,19.53
2022-08-05T01:45:57.861Z,19.56
2022-08-05T01:48:26.934Z,19.59
2022-08-05T01:50:55.465Z,19.65
2022-08-05T01:53:55.017Z,19.67
2022-08-05T01:56:11.698Z,19.71
2022-08-05T01:58:44.927Z,19.72
2022-08-05T02:01:14.777Z,19.72
2022-08-05T02:03:51.690Z,19.73
2022-08-05T02:06:37.002Z,19.64
2022-08-05T02:09:06.050Z,19.60
2022-08-05T02:11:48.192Z,19.63
2022-08-05T02:15:15.617Z,19.59
2022-08-05T02:18:31.561Z,19.49
2022-08-05T02:21:00.493Z,19.11
2022-08-05T02:23:33.674Z,19.31
2022-08-05T02:26:05.373Z,19.27
2022-08-05T02:28:41.480Z,19.22
2022-08-05T02:31:16.650Z,19.21
2022-08-05T02:33:57.165Z,19.18
2022-08-05T02:36:27.614Z,19.19
2022-08-05T02:38:57.727Z,19.21
2022-08-05T02:41:28.636Z,19.19
2022-08-05T02:44:06.899Z,19.19
2022-08-05T02:46:53.493Z,19.18
2022-08-05T02:49:36.998Z,19.16
2022-08-05T02:52:07.890Z,19.10
2022-08-05T02:54:37.594Z,19.09
2022-08-05T02:58:09.161Z,19.03
2022-08-05T02:59:59.471Z,18.96
2022-08-05T03:02:29.473Z,18.64
2022-08-05T03:04:57.702Z,18.81
2022-08-05T03:08:00.435Z,18.79
2022-08-05T03:10:15.984Z,18.80
2022-08-05T03:12:51.867Z,18.84
2022-08-05T03:15:20.601Z,18.80
2022-08-05T03:17:47.497Z,18.77
2022-08-05T03:20:21.064Z,18.74
2022-08-05T03:22:50.156Z,18.78
2022-08-05T03:25:33.878Z,18.73
2022-08-05T03:28:08.326Z,18.75
2022-08-05T03:30:36.266Z,18.74
2022-08-05T03:33:05.629Z,18.78
2022-08-05T03:35:34.033Z,18.73
2022-08-05T03:38:12.601Z,18.74
2022-08-05T03:40:47.539Z,18.71
2022-08-05T03:44:09.730Z,18.73
2022-08-05T03:46:04.888Z,18.76
2022-08-05T03:48:35.582Z,18.82
2022-08-05T03:52:37.323Z,18.81
2022-08-05T03:56:00.824Z,18.83
2022-08-05T03:56:54.372Z,18.91
2022-08-05T03:59:47.694Z,18.98
2022-08-05T04:02:37.922Z,19.01
2022-08-05T04:05:09.670Z,19.13
2022-08-05T04:07:57.442Z,19.35
2022-08-05T04:10:25.174Z,19.61
2022-08-05T04:12:55.561Z,19.89
2022-08-05T04:15:26.593Z,19.94
2022-08-05T04:17:56.737Z,20.01
2022-08-05T04:20:24.564Z,19.95
2022-08-05T04:22:51.482Z,19.98
2022-08-05T04:25:18.342Z,20.05
2022-08-05T04:27:57.192Z,20.12
2022-08-05T04:30:26.595Z,20.19
2022-08-05T04:32:53.655Z,20.31
2022-08-05T04:35:20.489Z,20.30
2022-08-05T04:38:01.076Z,20.55
2022-08-05T04:40:33.779Z,21.77
2022-08-05T04:43:00.671Z,21.82
2022-08-05T04:45:47.715Z,22.41
2022-08-05T04:48:18.460Z,23.07
2022-08-05T04:51:03.365Z,23.22
2022-08-05T04:53:38.773Z,24.67
2022-08-05T04:56:32.810Z,26.80
2022-08-05T04:58:56.598Z,28.38
2022-08-05T05:01:33.796Z,29.35
2022-08-05T05:04:10.547Z,30.09
2022-08-05T05:06:44.153Z,29.84
2022-08-05T05:09:13.340Z,30.65
2022-08-05T05:11:54.351Z,31.46
2022-08-05T05:14:27.810Z,31.48
2022-08-05T05:17:01.861Z,31.42
2022-08-05T05:19:36.591Z,29.97
2022-08-05T05:22:23.469Z,28.35
2022-08-05T05:24:57.392Z,27.79
2022-08-05T05:27:44.676Z,27.61
2022-08-05T05:30:29.372Z,27.87
2022-08-05T05:33:03.880Z,27.83
2022-08-05T05:35:42.890Z,27.75
2022-08-05T05:38:13.533Z,27.68
2022-08-05T05:40:49.989Z,26.99
2022-08-05T05:43:56.616Z,27.39
2022-08-05T05:46:17.845Z,26.89
2022-08-05T05:48:48.019Z,27.34
2022-08-05T05:51:22.530Z,26.88
2022-08-05T05:53:57.482Z,27.30
2022-08-05T05:56:33.185Z,27.35
2022-08-05T05:59:06.423Z,26.54
2022-08-05T06:01:38.197Z,26.62
2022-08-05T06:04:14.563Z,27.16
2022-08-05T06:06:47.556Z,26.93
2022-08-05T06:09:24.845Z,27.70
2022-08-05T06:12:01.354Z,27.66
2022-08-05T06:14:34.618Z,27.76
2022-08-05T06:17:22.655Z,27.39
2022-08-05T06:19:56.313Z,27.72
2022-08-05T06:22:28.862Z,27.77
2022-08-05T06:24:55.891Z,28.11
2022-08-05T06:28:10.757Z,28.11
2022-08-05T06:30:17.907Z,28.27
2022-08-05T06:32:48.289Z,28.16
2022-08-05T06:36:04.022Z,27.77
2022-08-05T06:38:10.084Z,28.08
2022-08-05T06:40:42.095Z,28.06
2022-08-05T06:43:58.000Z,28.63
2022-08-05T06:46:03.940Z,28.70
2022-08-05T06:48:53.027Z,28.12
2022-08-05T06:51:29.068Z,28.87
2022-08-05T06:53:58.837Z,29.04
2022-08-05T06:56:27.046Z,29.21
2022-08-05T06:58:55.193Z,29.91
2022-08-05T07:01:22.788Z,29.55
2022-08-05T07:03:50.121Z,29.51
2022-08-05T07:06:17.508Z,29.76
2022-08-05T07:08:53.192Z,30.31
2022-08-05T07:11:25.668Z,29.91
2022-08-05T07:14:15.574Z,29.94
2022-08-05T07:18:01.401Z,30.73
2022-08-05T07:20:23.142Z,30.83
2022-08-05T07:22:35.465Z,31.37
2022-08-05T07:25:22.921Z,30.93
2022-08-05T07:27:58.720Z,30.67
2022-08-05T07:30:39.015Z,31.25
2022-08-05T07:33:15.921Z,31.51
2022-08-05T07:36:03.320Z,31.57
2022-08-05T07:38:35.694Z,31.45
2022-08-05T07:42:09.118Z,31.58
2022-08-05T07:44:00.366Z,30.70
2022-08-05T07:46:29.602Z,31.35
2022-08-05T07:49:02.440Z,31.04
2022-08-05T07:51:36.901Z,31.68
2022-08-05T07:54:08.369Z,31.89
2022-08-05T07:57:00.667Z,32.47
2022-08-05T07:59:38.981Z,32.29
2022-08-05T08:02:10.655Z,31.36
2022-08-05T08:04:45.498Z,31.74
2022-08-05T08:07:13.432Z,32.10
2022-08-05T08:09:40.502Z,32.74
2022-08-05T08:12:37.490Z,32.96
2022-08-05T08:14:54.481Z,33.03
2022-08-05T08:17:21.786Z,33.35
2022-08-05T08:20:22.274Z,33.32
2022-08-05T08:22:36.599Z,33.68
2022-08-05T08:25:15.918Z,33.99
2022-08-05T08:27:44.851Z,33.16
2022-08-05T08:30:20.287Z,33.73
2022-08-05T08:33:02.603Z,33.48
2022-08-05T08:35:40.807Z,33.06
2022-08-05T08:38:16.297Z,33.67
2022-08-05T08:40:50.463Z,34.20
2022-08-05T08:45:17.182Z,34.13
2022-08-05T08:46:06.581Z,34.55
2022-08-05T08:49:03.354Z,34.84
2022-08-05T08:52:03.881Z,34.80
2022-08-05T08:54:13.807Z,35.17
2022-08-05T08:56:47.462Z,34.96
2022-08-05T08:59:21.336Z,34.99
2022-08-05T09:01:57.079Z,35.32
2022-08-05T09:04:30.696Z,35.55
2022-08-05T09:06:58.324Z,35.52
2022-08-05T09:09:34.694Z,35.85
2022-08-05T09:12:14.406Z,36.06
2022-08-05T09:14:58.275Z,36.20
2022-08-05T09:17:42.423Z,36.19
2022-08-05T09:20:11.253Z,36.39
2022-08-05T09:23:18.521Z,36.56
2022-08-05T09:26:01.873Z,36.46
2022-08-05T09:28:33.378Z,36.50
2022-08-05T09:32:38.685Z,36.78
2022-08-05T09:34:01.129Z,36.46
2022-08-05T09:36:54.205Z,36.50
2022-08-05T09:39:27.651Z,36.39
2022-08-05T09:42:08.585Z,36.46
2022-08-05T09:44:49.343Z,36.53
2022-08-05T09:47:22.884Z,36.40
2022-08-05T09:50:01.680Z,36.75
2022-08-05T09:52:29.478Z,36.74
2022-08-05T09:55:06.321Z,36.94
2022-08-05T09:57:54.856Z,37.11
2022-08-05T10:00:26.044Z,36.96
2022-08-05T10:02:57.977Z,37.08
2022-08-05T10:05:27.731Z,36.06
2022-08-05T10:08:35.538Z,35.51
2022-08-05T10:10:50.257Z,36.43
2022-08-05T10:13:47.516Z,36.82
2022-08-05T10:16:32.244Z,37.16
2022-08-05T10:19:01.816Z,37.11
2022-08-05T10:21:40.715Z,37.28
2022-08-05T10:24:13.676Z,37.64
2022-08-05T10:26:51.893Z,37.45
2022-08-05T10:29:24.128Z,36.50
2022-08-05T10:33:01.410Z,35.85
2022-08-05T10:35:00.902Z,35.43
2022-08-05T10:37:37.141Z,36.45
2022-08-05T10:40:40.626Z,36.16
2022-08-05T10:43:35.744Z,37.08
2022-08-05T10:46:08.592Z,37.40
2022-08-05T10:48:52.622Z,37.70
2022-08-05T10:51:28.935Z,37.61
2022-08-05T10:54:23.031Z,37.70
2022-08-05T10:56:53.138Z,37.70
2022-08-05T11:00:02.696Z,37.94
2022-08-05T11:02:37.433Z,37.82
2022-08-05T11:05:04.563Z,37.90
2022-08-05T11:07:32.911Z,38.22
2022-08-05T11:10:27.419Z,38.25
2022-08-05T11:12:57.103Z,38.18
2022-08-05T11:16:00.960Z,37.63
2022-08-05T11:18:32.678Z,37.93
2022-08-05T11:21:06.211Z,37.78
2022-08-05T11:24:04.856Z,36.53
2022-08-05T11:26:43.492Z,36.65
2022-08-05T11:29:37.628Z,37.17
2022-08-05T11:32:26.015Z,36.72
2022-08-05T11:34:54.346Z,37.16
2022-08-05T11:38:28.186Z,36.99
2022-08-05T11:41:35.380Z,37.19
2022-08-05T11:44:05.046Z,36.62
2022-08-05T11:47:09.853Z,37.03
2022-08-05T11:49:37.082Z,37.02
2022-08-05T11:52:11.467Z,36.68
2022-08-05T11:54:40.404Z,36.72
2022-08-05T11:57:25.331Z,36.58
2022-08-05T11:59:53.589Z,35.73
2022-08-05T12:02:31.645Z,36.76
2022-08-05T12:05:01.318Z,36.98
2022-08-05T12:08:07.860Z,36.80
2022-08-05T12:10:38.444Z,36.93
2022-08-05T12:13:17.410Z,36.96
2022-08-05T12:15:55.883Z,36.95
2022-08-05T12:18:33.371Z,37.08
2022-08-05T12:21:15.221Z,37.10
2022-08-05T12:24:08.662Z,36.86
2022-08-05T12:26:37.520Z,36.90
2022-08-05T12:29:16.171Z,37.10
2022-08-05T12:31:55.309Z,37.36
2022-08-05T12:34:33.917Z,36.89
2022-08-05T12:37:29.887Z,35.91
2022-08-05T12:40:03.564Z,36.09
2022-08-05T12:42:37.974Z,36.25
2022-08-05T12:45:08.902Z,36.56
2022-08-05T12:47:37.937Z,36.81
2022-08-05T12:50:17.679Z,37.06
2022-08-05T12:52:59.462Z,36.75
2022-08-05T12:55:32.517Z,37.09
2022-08-05T12:58:49.149Z,36.64
2022-08-05T13:01:59.857Z,36.62
2022-08-05T13:03:42.049Z,37.08
2022-08-05T13:06:17.532Z,37.07
2022-08-05T13:08:51.556Z,37.00
2022-08-05T13:11:25.303Z,36.98
2022-08-05T13:14:14.858Z,37.10
2022-08-05T13:16:47.049Z,36.99
2022-08-05T13:19:15.997Z,36.81
2022-08-05T13:21:47.825Z,36.91
2022-08-05T13:24:36.215Z,37.07
2022-08-05T13:27:11.204Z,36.99
2022-08-05T13:29:59.552Z,37.14
2022-08-05T13:32:34.003Z,37.00
2022-08-05T13:35:03.662Z,37.00
2022-08-05T13:37:34.989Z,36.82
2022-08-05T13:40:14.188Z,37.05
2022-08-05T13:42:47.141Z,36.77
2022-08-05T13:45:21.512Z,37.01
2022-08-05T13:48:09.152Z,36.68
2022-08-05T13:50:35.523Z,36.80
2022-08-05T13:53:02.370Z,36.20
2022-08-05T13:55:41.494Z,36.72
2022-08-05T13:58:14.978Z,36.61
2022-08-05T14:00:58.431Z,36.15
2022-08-05T14:03:28.283Z,36.44
2022-08-05T14:06:24.897Z,36.51
2022-08-05T14:08:42.904Z,36.75
2022-08-05T14:11:20.252Z,36.87
2022-08-05T14:13:48.443Z,36.78
2022-08-05T14:16:16.721Z,36.35
2022-08-05T14:18:44.264Z,36.49
2022-08-05T14:22:07.154Z,36.35
2022-08-05T14:23:57.893Z,36.68
2022-08-05T14:26:38.382Z,36.58
2022-08-05T14:29:16.333Z,36.37
2022-08-05T14:32:03.493Z,36.50
2022-08-05T14:34:35.099Z,36.44
2022-08-05T14:37:05.894Z,36.28
2022-08-05T14:39:49.527Z,36.34
2022-08-05T14:42:29.272Z,36.14
2022-08-05T14:44:56.822Z,36.25
2022-08-05T14:47:58.417Z,36.39
2022-08-05T14:50:18.418Z,36.36
2022-08-05T14:52:58.472Z,36.23
2022-08-05T14:55:28.567Z,35.79
2022-08-05T14:58:11.097Z,35.75
2022-08-05T15:00:39.777Z,35.96
2022-08-05T15:03:33.828Z,35.93
2022-08-05T15:06:07.890Z,35.88
2022-08-05T15:09:01.563Z,35.52
2022-08-05T15:11:51.006Z,35.58
2022-08-05T15:14:20.204Z,35.51
2022-08-05T15:17:01.123Z,35.34
2022-08-05T15:19:28.054Z,35.28
2022-08-05T15:21:59.957Z,35.37
2022-08-05T15:24:27.959Z,35.31
2022-08-05T15:26:55.764Z,35.32
2022-08-05T15:29:22.996Z,35.19
2022-08-05T15:31:52.958Z,35.14
2022-08-05T15:34:32.076Z,35.08
2022-08-05T15:37:03.458Z,35.01
2022-08-05T15:40:58.698Z,34.97
2022-08-05T15:42:49.812Z,35.00
2022-08-05T15:45:10.510Z,34.96
2022-08-05T15:47:38.310Z,34.86
2022-08-05T15:50:07.260Z,34.77
2022-08-05T15:52:53.424Z,34.77
2022-08-05T15:55:24.603Z,34.70
2022-08-05T15:57:52.459Z,34.74
2022-08-05T16:00:26.525Z,34.61
2022-08-05T16:02:59.988Z,34.63
2022-08-05T16:05:28.191Z,34.61
2022-08-05T16:07:55.487Z,34.61
2022-08-05T16:10:26.768Z,34.60
2022-08-05T16:12:55.829Z,34.54
2022-08-05T16:15:23.837Z,34.51
2022-08-05T16:17:57.669Z,34.45
2022-08-05T16:20:25.880Z,34.35
2022-08-05T16:22:55.123Z,34.32
2022-08-05T16:25:32.177Z,34.30
2022-08-05T16:28:10.351Z,34.25
2022-08-05T16:30:37.544Z,34.20
2022-08-05T16:33:04.764Z,34.18
2022-08-05T16:35:33.409Z,34.10
2022-08-05T16:38:16.013Z,34.06
2022-08-05T16:40:55.317Z,33.98
2022-08-05T16:43:27.874Z,33.85
2022-08-05T16:46:04.279Z,33.83
2022-08-05T16:48:38.500Z,33.73
2022-08-05T16:51:08.969Z,33.70
2022-08-05T16:54:06.104Z,33.63
2022-08-05T16:56:29.283Z,33.43
2022-08-05T16:58:57.063Z,33.32
2022-08-05T17:01:24.560Z,33.22
2022-08-05T17:03:52.033Z,33.19
2022-08-05T17:06:19.532Z,33.12
2022-08-05T17:08:53.792Z,33.07
2022-08-05T17:11:25.690Z,33.04
2022-08-05T17:14:00.406Z,32.97
2022-08-05T17:16:38.103Z,32.93
2022-08-05T17:19:07.464Z,32.86
2022-08-05T17:21:37.257Z,32.70
2022-08-05T17:24:19.615Z,32.56
2022-08-05T17:26:53.737Z,32.44
2022-08-05T17:29:34.005Z,32.28
2022-08-05T17:32:17.753Z,32.14
2022-08-05T17:34:47.700Z,32.01
2022-08-05T17:37:39.417Z,31.87
2022-08-05T17:40:06.138Z,31.76
2022-08-05T17:42:41.795Z,31.57
2022-08-05T17:45:20.797Z,31.44
2022-08-05T17:47:55.407Z,31.27
2022-08-05T17:50:28.533Z,31.17
2022-08-05T17:53:01.710Z,31.02
2022-08-05T17:55:38.311Z,30.85
2022-08-05T17:58:12.854Z,30.71
2022-08-05T18:00:45.517Z,30.53
2022-08-05T18:03:48.558Z,30.35
2022-08-05T18:06:11.233Z,30.24
2022-08-05T18:08:38.491Z,30.04
2022-08-05T18:11:07.574Z,29.98
2022-08-05T18:13:43.859Z,29.85
2022-08-05T18:16:13.377Z,29.71
2022-08-05T18:18:41.412Z,29.59
2022-08-05T18:21:20.054Z,29.49
2022-08-05T18:23:49.921Z,29.34
2022-08-05T18:26:22.382Z,28.62
2022-08-05T18:28:56.548Z,28.32
2022-08-05T18:31:33.085Z,28.37
2022-08-05T18:34:03.751Z,28.43
2022-08-05T18:36:35.425Z,28.44
2022-08-05T18:39:09.722Z,28.35
2022-08-05T18:42:00.543Z,28.24
2022-08-05T18:44:34.848Z,28.14
2022-08-05T18:47:04.020Z,28.14
2022-08-05T18:49:58.357Z,28.03
2022-08-05T18:52:33.626Z,27.97
2022-08-05T18:55:05.723Z,27.88
2022-08-05T18:57:43.013Z,27.82
2022-08-05T19:00:20.219Z,27.75
2022-08-05T19:02:47.845Z,27.71
2022-08-05T19:06:11.691Z,27.67
2022-08-05T19:08:02.838Z,27.59
2022-08-05T19:10:30.586Z,27.59
2022-08-05T19:12:57.530Z,27.53
2022-08-05T19:15:59.222Z,27.42
2022-08-05T19:18:22.006Z,27.42
2022-08-05T19:20:52.199Z,27.39
2022-08-05T19:24:06.251Z,27.39
2022-08-05T19:26:08.582Z,27.34
2022-08-05T19:28:42.117Z,27.20
2022-08-05T19:31:12.982Z,27.20
2022-08-05T19:33:48.261Z,26.77
2022-08-05T19:36:24.050Z,26.90
2022-08-05T19:38:51.630Z,26.94
2022-08-05T19:41:22.193Z,26.90
2022-08-05T19:44:13.487Z,26.82
2022-08-05T19:46:41.283Z,26.78
2022-08-05T19:49:16.630Z,26.50
2022-08-05T19:52:05.097Z,26.23
2022-08-05T19:54:34.092Z,26.07
2022-08-05T19:57:06.403Z,25.53
2022-08-05T19:59:55.525Z,25.58
2022-08-05T20:02:23.394Z,25.55
2022-08-05T20:04:50.614Z,25.65
2022-08-05T20:07:48.309Z,25.50
2022-08-05T20:10:11.817Z,25.66
2022-08-05T20:12:48.122Z,25.58
2022-08-05T20:15:48.782Z,25.58
2022-08-05T20:18:10.848Z,25.36
2022-08-05T20:20:56.371Z,25.36
2022-08-05T20:23:39.726Z,25.28
2022-08-05T20:26:15.408Z,25.38
2022-08-05T20:28:48.831Z,25.28
2022-08-05T20:31:21.926Z,25.37
2022-08-05T20:33:50.580Z,25.29
2022-08-05T20:36:18.247Z,25.30
2022-08-05T20:38:53.453Z,25.28
2022-08-05T20:41:27.162Z,25.28
2022-08-05T20:44:19.418Z,24.93
2022-08-05T20:46:55.648Z,25.01
2022-08-05T20:49:24.512Z,25.01
2022-08-05T20:51:54.145Z,24.82
2022-08-05T20:54:58.926Z,24.85
2022-08-05T20:57:15.170Z,24.85
2022-08-05T21:00:20.552Z,24.73
2022-08-05T21:02:54.587Z,24.72
2022-08-05T21:05:23.907Z,24.61
2022-08-05T21:07:51.858Z,24.65
2022-08-05T21:10:21.439Z,24.65
2022-08-05T21:12:57.929Z,24.68
2022-08-05T21:15:35.974Z,24.64
2022-08-05T21:18:03.412Z,24.63
2022-08-05T21:20:32.636Z,24.42
2022-08-05T21:23:00.628Z,24.43
2022-08-05T21:25:33.906Z,24.40
2022-08-05T21:28:02.661Z,24.38
2022-08-05T21:30:29.563Z,24.29
2022-08-05T21:32:56.446Z,24.26
2022-08-05T21:35:29.912Z,24.12
2022-08-05T21:37:57.500Z,24.09
2022-08-05T21:40:25.660Z,24.07
2022-08-05T21:42:53.603Z,24.08
2022-08-05T21:45:25.001Z,23.79
2022-08-05T21:48:09.116Z,23.80
2022-08-05T21:50:36.774Z,23.72
2022-08-05T21:53:16.448Z,23.67
2022-08-05T21:56:05.707Z,23.68
2022-08-05T21:58:32.174Z,23.74
2022-08-05T22:00:59.642Z,23.75
2022-08-05T22:03:52.254Z,23.75
2022-08-05T22:06:15.866Z,23.71
2022-08-05T22:08:50.492Z,23.51
2022-08-05T22:11:35.145Z,23.60
2022-08-05T22:14:18.238Z,23.56
2022-08-05T22:16:53.033Z,23.56
2022-08-05T22:20:00.615Z,23.54
2022-08-05T22:22:10.674Z,23.50
2022-08-05T22:24:56.244Z,23.45
2022-08-05T22:28:08.794Z,23.44
2022-08-05T22:30:35.105Z,23.43
2022-08-05T22:33:04.190Z,23.37
2022-08-05T22:35:48.685Z,23.34
2022-08-05T22:38:19.633Z,23.33
2022-08-05T22:40:49.558Z,23.29
2022-08-05T22:43:36.810Z,23.28
2022-08-05T22:46:12.082Z,23.18
2022-08-05T22:48:42.014Z,23.15
2022-08-05T22:51:15.737Z,23.09
2022-08-05T22:53:51.047Z,23.08
2022-08-05T22:56:30.121Z,23.03
2022-08-05T22:59:04.683Z,22.76
2022-08-05T23:02:04.178Z,22.77
2022-08-05T23:04:32.218Z,22.86
2022-08-05T23:06:59.144Z,22.87
2022-08-05T23:09:27.964Z,22.80
2022-08-05T23:12:12.963Z,22.71
2022-08-05T23:14:39.776Z,22.71
2022-08-05T23:17:34.804Z,22.66
2022-08-05T23:20:10.536Z,22.59
2022-08-05T23:22:47.137Z,22.59
2022-08-05T23:25:17.612Z,22.59
2022-08-05T23:28:06.946Z,22.55
2022-08-05T23:30:40.269Z,22.52
2022-08-05T23:33:21.950Z,22.52
2022-08-05T23:35:50.926Z,22.47
2022-08-05T23:38:18.344Z,22.44
2022-08-05T23:40:50.098Z,22.27
2022-08-05T23:43:25.604Z,22.31
2022-08-05T23:46:19.953Z,22.28
2022-08-05T23:49:00.460Z,22.22
2022-08-05T23:51:53.985Z,22.19
2022-08-05T23:54:34.253Z,22.14
2022-08-05T23:57:04.904Z,22.08
